Latest Coastal Weather Observations for King Island Airport

IDV60701

Issued at 8:31 pm EST Sunday 2 August 2015 (issued every 10 minutes, with the page automatically refreshed every 10 minutes)

About coastal observations | Map of coastal stations | Coastal observations for VIC | Marine services | Other Formats
Station Details ID: 098017 Name: KING ISLAND AIRPORT Lat: -39.88 Lon: 143.88 Height: 37.0 m
Data from the previous 72 hours. | See also: Recent months at King Island Airport
Date/Time
EST
Temp

°C
Wind Pressure Rain
since 9am
mm
Weather Cloud Vis
km
Sea
Height
m
Swell
Dir
 
Speed
knots
Gust
knots
hPa Trend Height
m
Period
s
Dir
02/08:30pm 8.8 WNW 27 38 1005.4 - 3.2 - Partly cloudy 10 - - - -
02/08:00pm 9.4 WNW 27 42 1005.4 - 3.2 - Partly cloudy 10 - - - -
02/07:33pm 8.8 WNW 26 36 1005.5 - 3.2 - Partly cloudy 10 - - - -
02/07:30pm 8.8 WNW 27 35 1005.5 - 3.2 - Partly cloudy 10 - - - -
02/07:00pm 8.3 W 29 44 1005.5 - 3.2 - Partly cloudy 8 - - - -
02/06:56pm 10.0 W 26 44 1005.3 - 3.0 - Partly cloudy 10 - - - -
02/06:30pm 9.2 W 22 32 1005.1 - 3.0 - Partly cloudy 10 - - - -
02/06:00pm 8.4 W 23 37 1005.4 - 3.0 Showers Mostly cloudy 10 - - - -
02/05:36pm 9.3 W 24 35 1005.2 - 3.0 - Partly cloudy 10 - - - -
02/05:30pm 9.2 WNW 23 32 1005.2 - 3.0 - Partly cloudy 10 - - - -
02/05:00pm 9.0 W 22 32 1005.2 - 3.0 - Partly cloudy 10 - - - -
02/04:40pm 8.9 W 23 35 1005.1 - 3.0 - Partly cloudy 10 - - - -
02/04:30pm 8.1 WSW 26 49 1005.3 - 2.8 - Partly cloudy 5 - - - -
02/04:28pm 7.9 W 27 49 1005.2 - 2.8 - Partly cloudy 5 - - - -
02/04:24pm 7.8 W 26 49 1005.2 - 2.8 - Partly cloudy 4 - - - -
02/04:22pm 7.8 W 26 49 1005.5 - 2.8 - Partly cloudy 5 - - - -
02/04:21pm 7.9 W 24 49 1005.4 - 2.8 - Partly cloudy 5 - - - -
02/04:20pm 8.2 W 23 42 1005.2 - 2.6 - Partly cloudy 8 - - - -
02/04:11pm 9.2 W 21 31 1004.9 - 2.4 - Partly cloudy 10 - - - -
02/04:00pm 9.5 W 23 32 1005.2 - 2.4 - Partly cloudy 10 - - - -
02/03:30pm 9.9 W 23 33 1005.2 - 2.4 - Partly cloudy 10 - - - -
02/03:00pm 9.7 W 23 33 1005.1 - 2.4 - Mostly cloudy 10 - - - -
02/02:42pm 9.4 W 21 32 1005.1 - 2.4 - Partly cloudy 10 - - - -
02/02:30pm 9.3 W 20 28 1005.2 - 2.4 - Partly cloudy 10 - - - -
02/02:00pm 9.1 W 23 33 1005.0 - 2.4 - Partly cloudy 10 - - - -
02/01:43pm 9.1 W 19 29 1004.9 - 2.4 - Partly cloudy 10 - - - -
02/01:30pm 8.2 WSW 21 28 1005.1 - 2.4 - Partly cloudy 10 - - - -
02/01:01pm 7.7 SW 21 31 1005.3 - 2.4 - Partly cloudy 10 - - - -
02/01:00pm 7.8 SW 21 28 1005.3 - 2.4 - Partly cloudy 10 - - - -
02/12:49pm 7.9 SW 20 29 1005.1 - 2.2 - Partly cloudy 10 - - - -
02/12:33pm 7.6 SW 24 36 1005.1 - 2.2 - Partly cloudy 9 - - - -
02/12:30pm 7.6 SW 25 36 1005.0 - 2.2 - Partly cloudy 8 - - - -
02/12:18pm 8.3 W 26 44 1004.6 - 2.0 - Partly cloudy 4 - - - -
02/12:17pm 8.6 W 26 44 1004.5 - 1.8 - Partly cloudy 4 - - - -
02/12:00pm 9.2 W 30 43 1004.8 - 1.0 Rain Cloudy 4 - - - -
02/11:52am 9.2 W 29 44 1004.7 - 0.6 - Partly cloudy 5 - - - -
02/11:30am 11.2 WNW 33 44 1004.5 - 0.0 - Partly cloudy 9 - - - -
02/11:15am 11.9 NW 34 44 1004.8 - 0.0 - Partly cloudy 10 - - - -
02/11:00am 11.8 WNW 32 41 1005.1 - 0.0 - Partly cloudy 10 - - - -
02/10:42am 11.4 WNW 31 41 1005.2 - 0.0 - Partly cloudy 10 - - - -
02/10:30am 11.0 NW 33 41 1005.3 - 0.0 - Partly cloudy 10 - - - -
02/10:01am 11.3 NW 33 44 1005.8 - 0.0 - Partly cloudy 10 - - - -
02/10:00am 11.2 NW 33 42 1005.8 - 0.0 - Partly cloudy 10 - - - -
02/09:30am 11.3 WNW 28 38 1006.3 - 0.0 - Partly cloudy 10 - - - -
02/09:22am 10.9 WNW 27 37 1006.4 - 0.0 - Partly cloudy 10 - - - -
02/09:00am 9.7 WNW 24 31 1006.8 - 1.8 Showers Mostly cloudy 10 - - - -
02/08:30am 10.3 WNW 26 36 1007.1 - 1.8 - Partly cloudy 10 - - - -
02/08:26am 10.4 WNW 26 36 1007.1 - 1.8 - Partly cloudy 10 - - - -
02/08:00am 10.1 WNW 27 35 1007.3 - 1.8 - Partly cloudy 10 - - - -
02/07:54am 9.8 WNW 25 35 1007.3 - 1.8 - Partly cloudy 10 - - - -
02/07:30am 8.9 WNW 22 30 1007.5 - 1.8 - Partly cloudy 10 - - - -
02/07:08am 10.1 WNW 23 33 1007.3 - 1.8 - Partly cloudy 10 - - - -
02/07:00am 9.7 WNW 20 27 1007.4 - 1.6 - Partly cloudy 10 - - - -
02/06:31am 9.3 NW 26 38 1007.8 - 1.4 - Partly cloudy 10 - - - -
02/06:30am 9.9 NW 25 34 1007.8 - 1.4 - Partly cloudy 10 - - - -
02/06:15am 8.9 WNW 22 32 1007.9 - 1.4 - Partly cloudy 8 - - - -
02/06:00am 9.3 WNW 22 31 1008.1 - 1.2 Showers Partly cloudy 10 - - - -
02/05:35am 9.2 WNW 21 36 1008.3 - 1.2 - Partly cloudy 10 - - - -
02/05:30am 9.4 WNW 21 27 1008.3 - 1.2 - Partly cloudy 10 - - - -
02/05:00am 9.3 WNW 22 33 1008.7 - 1.2 - Partly cloudy 10 - - - -
02/04:35am 9.8 WNW 21 35 1008.9 - 1.0 - Partly cloudy 10 - - - -
02/04:30am 9.7 WNW 22 27 1008.9 - 1.0 - Partly cloudy 10 - - - -
02/04:00am 9.3 NW 21 27 1009.4 - 1.0 - Partly cloudy 10 - - - -
02/03:43am 9.6 WNW 22 32 1009.6 - 1.0 - Partly cloudy 10 - - - -
02/03:30am 9.0 WNW 20 26 1009.9 - 1.0 - Partly cloudy 10 - - - -
02/03:07am 9.3 WNW 22 34 1010.4 - 1.0 - Partly cloudy 10 - - - -
02/03:00am 9.5 WNW 22 29 1010.3 - 1.0 - Mostly clear 10 - - - -
02/02:30am 9.4 WNW 22 29 1010.9 - 1.0 - Partly cloudy 10 - - - -
02/02:00am 9.6 WNW 21 28 1011.0 - 1.0 - Partly cloudy 10 - - - -
02/01:42am 9.3 WNW 16 26 1011.2 - 1.0 - Partly cloudy 10 - - - -
02/01:30am 8.7 WNW 18 27 1011.4 - 1.0 - Partly cloudy 10 - - - -
02/01:16am 9.1 WNW 20 32 1011.6 - 1.0 - Partly cloudy 10 - - - -
02/01:00am 9.0 WNW 21 28 1011.8 - 1.0 - Partly cloudy 10 - - - -
02/12:30am 8.8 WNW 19 31 1012.1 - 0.8 - Partly cloudy 9 - - - -
02/12:13am 8.9 WNW 17 27 1012.2 - 0.8 - Partly cloudy 10 - - - -
02/12:00am 9.1 W 16 23 1012.3 - 0.8 Rain Mostly cloudy 10 - - - -
 
Date/Time
EST
Temp

°C
Wind Pressure Rain
since 9am
mm
Weather Cloud Vis
km
Sea
Height
m
Swell
Dir
 
Speed
knots
Gust
knots
hPa Trend Height
m
Period
s
Dir
01/11:32pm 8.8 WNW 15 27 1012.5 - 0.8 - Partly cloudy 10 - - - -
01/11:30pm 8.7 WNW 14 19 1012.5 - 0.8 - Partly cloudy 10 - - - -
01/11:02pm 9.1 WNW 16 31 1012.6 - 0.6 - Partly cloudy 10 - - - -
01/11:00pm 9.0 WNW 15 20 1012.6 - 0.6 - Partly cloudy 10 - - - -
01/10:30pm 9.1 W 17 22 1013.2 - 0.4 - Partly cloudy 8 - - - -
01/10:00pm 9.4 WNW 17 22 1013.2 - 0.0 - Partly cloudy 10 - - - -
01/09:30pm 9.4 WNW 18 25 1013.2 - 0.0 - Partly cloudy 10 - - - -
01/09:03pm 8.8 WNW 19 29 1013.2 - 0.0 - Partly cloudy 10 - - - -
01/09:00pm 8.8 WNW 21 29 1013.3 - 0.0 Drizzle Cloudy 10 - - - -
01/08:53pm 9.0 WNW 19 29 1013.4 - 0.0 - Partly cloudy 10 - - - -
01/08:30pm 9.2 WNW 17 23 1013.2 - 0.0 - Partly cloudy 10 - - - -
01/08:00pm 8.6 WNW 18 25 1013.3 - 0.0 - Partly cloudy 10 - - - -
01/07:44pm 9.4 WNW 15 27 1013.3 - 0.0 - Partly cloudy 10 - - - -
01/07:30pm 9.3 WNW 15 20 1013.2 - 0.0 - Partly cloudy 10 - - - -
01/07:00pm 9.4 WNW 15 24 1013.1 - 0.0 - Partly cloudy 10 - - - -
01/06:30pm 9.3 WNW 17 26 1013.1 - 0.0 - Partly cloudy 10 - - - -
01/06:00pm 9.3 WNW 17 24 1013.0 - 0.0 - Mostly cloudy 10 - - - -
01/05:30pm 9.2 W 17 23 1012.7 - 0.0 - Partly cloudy 10 - - - -
01/05:00pm 9.1 WNW 18 27 1012.5 - 0.0 - Partly cloudy 10 - - - -
01/04:30pm 9.6 W 18 26 1012.3 - 0.0 - Partly cloudy 10 - - - -
01/04:00pm 10.0 W 16 22 1011.9 - 0.0 - Partly cloudy 10 - - - -
01/03:30pm 9.3 WNW 16 25 1011.8 - 0.0 - Partly cloudy 10 - - - -
01/03:23pm 9.5 W 15 25 1011.8 - 0.0 - Partly cloudy 10 - - - -
01/03:00pm 10.3 W 17 23 1011.8 - 0.0 - Cloudy 10 - - - -
01/02:30pm 9.9 W 17 23 1011.5 - 0.0 - Partly cloudy 10 - - - -
01/02:00pm 10.1 WSW 15 22 1011.5 - 0.0 - Partly cloudy 10 - - - -
01/01:38pm 10.3 W 16 26 1011.6 - 0.0 - Partly cloudy 10 - - - -
01/01:30pm 10.5 W 14 22 1011.7 - 0.0 - Partly cloudy 10 - - - -
01/01:00pm 9.2 WSW 18 24 1011.9 - 0.0 - Partly cloudy 10 - - - -
01/12:38pm 11.0 W 17 29 1012.0 - 0.0 - Partly cloudy 10 - - - -
01/12:30pm 10.5 W 18 26 1011.9 - 0.0 - Partly cloudy 10 - - - -
01/12:00pm 10.2 W 17 22 1011.8 - 0.0 - Cloudy 10 - - - -
01/11:30am 9.7 W 15 23 1011.8 - 0.0 - Partly cloudy 10 - - - -
01/11:00am 9.1 WSW 19 29 1011.8 - 0.0 - Partly cloudy 10 - - - -
01/10:50am 9.5 WSW 17 27 1011.7 - 0.0 - Partly cloudy 10 - - - -
01/10:30am 9.9 W 17 25 1011.6 - 0.0 - Partly cloudy 10 - - - -
01/10:05am 9.5 W 19 29 1011.4 - 0.0 - Partly cloudy 10 - - - -
01/10:00am 9.6 W 17 25 1011.4 - 0.0 - Partly cloudy 10 - - - -
01/09:30am 9.1 W 16 27 1011.1 - 0.0 - Partly cloudy 10 - - - -
01/09:29am 9.0 W 15 27 1011.1 - 0.0 - Partly cloudy 10 - - - -
01/09:00am 9.2 WSW 18 25 1010.3 - 7.2 - Mostly cloudy 10 - - - -
01/08:50am 8.8 WSW 18 28 1010.1 - 7.2 - Partly cloudy 10 - - - -
01/08:30am 8.7 WSW 20 28 1009.8 - 7.2 - Partly cloudy 10 - - - -
01/08:00am 8.4 WSW 19 29 1009.1 - 7.2 - Partly cloudy 10 - - - -
01/07:30am 8.5 WSW 21 31 1008.3 - 7.2 - Partly cloudy 10 - - - -
01/07:00am 8.9 WSW 21 32 1007.6 - 7.2 - Partly cloudy 10 - - - -
01/06:31am 9.1 WSW 19 30 1006.9 - 7.2 - Partly cloudy 10 - - - -
01/06:30am 9.1 WSW 19 27 1006.9 - 7.2 - Partly cloudy 10 - - - -
01/06:08am 8.6 WSW 20 30 1006.5 - 7.2 - Partly cloudy 10 - - - -
01/06:00am 8.4 WSW 19 26 1006.4 - 7.2 Rain Cloudy 10 - - - -
01/05:39am 8.0 WSW 22 33 1006.0 - 7.0 - Partly cloudy 10 - - - -
01/05:30am 8.3 WSW 22 31 1005.9 - 6.8 - Partly cloudy 10 - - - -
01/05:06am 8.5 WSW 21 31 1005.3 - 6.2 - Partly cloudy 10 - - - -
01/05:00am 8.6 WSW 22 30 1005.2 - 6.0 - Partly cloudy 10 - - - -
01/04:46am 8.8 WSW 17 27 1004.8 - 5.6 - Partly cloudy 10 - - - -
01/04:30am 8.6 WSW 22 30 1004.6 - 5.4 - Partly cloudy 10 - - - -
01/04:17am 8.4 WSW 22 29 1004.6 - 5.0 - Partly cloudy 10 - - - -
01/04:11am 8.7 WSW 23 31 1004.7 - 5.0 - Partly cloudy 10 - - - -
01/04:00am 8.5 W 20 28 1004.4 - 5.0 - Partly cloudy 5 - - - -
01/03:54am 9.9 WNW 22 32 1004.0 - 4.8 - Partly cloudy 5 - - - -
01/03:52am 10.0 WNW 24 32 1004.1 - 4.6 - Partly cloudy 5 - - - -
01/03:45am 9.7 NW 29 37 1004.2 - 4.2 - Partly cloudy - - - - -
01/03:32am 10.3 NW 32 42 1003.8 - 2.8 - Partly cloudy - - - - -
01/03:30am 10.3 NW 33 42 1003.7 - 2.6 - Partly cloudy - - - - -
01/03:19am 10.4 NNW 33 43 1003.8 - 2.4 - Partly cloudy 5 - - - -
01/03:14am 10.3 NNW 34 43 1003.8 - 2.4 - Partly cloudy 4 - - - -
01/03:07am 10.2 NNW 32 43 1003.9 - 2.2 - Partly cloudy - - - - -
01/03:00am 10.3 NNW 30 39 1003.9 - 2.2 Rain Cloudy - - - - -
01/02:43am 10.2 NNW 28 38 1004.2 - 1.6 - Partly cloudy - - - - -
01/02:30am 10.4 NNW 30 38 1004.4 - 1.0 - Partly cloudy 5 - - - -
01/02:14am 10.6 NNW 28 38 1004.7 - 0.6 - Partly cloudy 5 - - - -
01/02:08am 10.5 NNW 29 38 1004.9 - 0.4 - Partly cloudy 5 - - - -
01/02:00am 10.8 NNW 29 37 1005.0 - 0.2 - Partly cloudy 8 - - - -
01/01:30am 11.0 NNW 28 38 1005.2 - 0.2 - Partly cloudy 10 - - - -
01/01:00am 11.0 NNW 27 37 1006.1 - 0.2 - Partly cloudy 10 - - - -
01/12:30am 10.8 NNW 28 40 1006.5 - 0.2 - Partly cloudy 10 - - - -
01/12:00am 10.8 NNW 27 37 1007.2 - 0.2 - Mostly cloudy 10 - - - -
 
Date/Time
EST
Temp

°C
Wind Pressure Rain
since 9am
mm
Weather Cloud Vis
km
Sea
Height
m
Swell
Dir
 
Speed
knots
Gust
knots
hPa Trend Height
m
Period
s
Dir
31/11:41pm 10.8 NNW 28 38 1007.6 - 0.2 - Partly cloudy 10 - - - -
31/11:30pm 10.7 NNW 25 33 1007.7 - 0.2 - Partly cloudy 10 - - - -
31/11:00pm 10.4 NNW 25 36 1008.3 - 0.2 - Partly cloudy 10 - - - -
31/10:37pm 10.2 N 22 33 1009.1 - 0.2 - Partly cloudy 10 - - - -
31/10:30pm 10.3 NNW 23 29 1009.3 - 0.2 - Partly cloudy 10 - - - -
31/10:07pm 10.4 NNW 26 36 1009.6 - 0.2 - Partly cloudy 10 - - - -
31/10:00pm 10.4 NNW 27 34 1009.4 - 0.2 - Partly cloudy 10 - - - -
31/09:40pm 10.3 N 25 35 1009.6 - 0.2 - Partly cloudy 10 - - - -
31/09:30pm 10.3 NNW 25 34 1009.6 - 0.2 - Partly cloudy 10 - - - -
31/09:04pm 10.3 NNW 27 39 1010.6 - 0.2 - Partly cloudy 10 - - - -
31/09:00pm 10.5 NNW 27 35 1010.7 - 0.2 - Cloudy 10 - - - -
31/08:56pm 10.4 NNW 25 35 1010.8 - 0.2 - Partly cloudy 10 - - - -
31/08:30pm 10.2 NNW 25 31 1011.2 - 0.2 - Partly cloudy 10 - - - -
31/08:00pm 10.1 NNW 25 33 1012.1 - 0.2 - Partly cloudy 10 - - - -
31/07:50pm 10.0 NNW 22 33 1012.4 - 0.2 - Partly cloudy 10 - - - -
31/07:30pm 9.9 NNW 21 28 1012.5 - 0.2 - Partly cloudy 10 - - - -
31/07:00pm 9.8 NNW 21 27 1012.6 - 0.2 - Cloudy 10 - - - -
31/06:30pm 9.8 NNW 19 26 1012.7 - 0.2 - Cloudy 10 - - - -
31/06:00pm 9.9 NNW 21 26 1013.1 - 0.2 - Cloudy 10 - - - -
31/05:30pm 9.9 NNW 22 29 1013.4 - 0.2 - Partly cloudy 10 - - - -
31/05:00pm 10.1 NNW 21 28 1013.4 - 0.2 - Cloudy 10 - - - -
31/04:30pm 10.2 NNW 22 28 1013.5 - 0.2 - Cloudy 10 - - - -
31/04:00pm 10.3 NNW 22 28 1013.6 - 0.2 - Cloudy 10 - - - -
31/03:30pm 10.3 NNW 22 28 1013.8 - 0.2 - Partly cloudy 10 - - - -
31/03:00pm 9.6 NW 17 22 1014.1 - 0.2 Rain Cloudy 9 - - - -
31/02:30pm 10.4 WNW 18 22 1014.5 - 0.2 - Partly cloudy 10 - - - -
31/02:00pm 10.3 NW 19 25 1014.9 - 0.2 - Partly cloudy 10 - - - -
31/01:30pm 10.4 NW 21 27 1015.5 - 0.2 - Partly cloudy 10 - - - -
31/01:00pm 10.6 WNW 18 24 1015.8 - 0.2 - Partly cloudy 10 - - - -
31/12:30pm 11.1 NW 19 23 1016.5 - 0.2 - Partly cloudy 10 - - - -
31/12:00pm 10.2 WNW 16 21 1017.6 - 0.2 Drizzle Mostly cloudy 10 - - - -
31/11:30am 10.2 NW 18 22 1017.9 - 0.0 - Partly cloudy 10 - - - -
31/11:00am 9.6 WNW 15 21 1018.2 - 0.0 - Partly cloudy 10 - - - -
31/10:57am 9.5 NW 17 27 1018.2 - 0.0 - Partly cloudy 9 - - - -
31/10:47am 9.4 WNW 17 26 1018.2 - 0.0 - Partly cloudy 10 - - - -
31/10:30am 9.8 W 9 17 1018.2 - 0.0 - Partly cloudy 10 - - - -
31/10:00am 8.8 W 16 21 1018.5 - 0.0 - Partly cloudy 10 - - - -
31/09:30am 9.8 NW 14 17 1018.4 - 0.0 - Partly cloudy 10 - - - -
31/09:00am 8.8 W 10 18 1018.4 - 10.8 Showers Cloudy 10 - - - -
31/08:53am 8.3 WNW 17 27 1018.5 - 10.8 - Partly cloudy 9 - - - -
31/08:48am 8.4 W 18 27 1018.5 - 10.8 - Partly cloudy 10 - - - -
31/08:30am 8.7 W 10 15 1018.3 - 10.8 - Partly cloudy 10 - - - -
31/08:00am 8.2 WNW 12 19 1018.1 - 10.8 - Partly cloudy 10 - - - -
31/07:30am 8.1 W 12 17 1017.8 - 10.8 - Partly cloudy 10 - - - -
31/07:00am 8.1 W 11 16 1017.5 - 10.8 - Partly cloudy 10 - - - -
31/06:30am 8.1 W 10 15 1017.4 - 10.8 - Partly cloudy 10 - - - -
31/06:00am 8.5 W 11 15 1017.4 - 10.6 - Partly cloudy 10 - - - -
31/05:30am 8.7 W 12 18 1017.2 - 10.6 - Partly cloudy 10 - - - -
31/05:00am 8.4 W 11 15 1017.2 - 10.6 - Partly cloudy 10 - - - -
31/04:30am 8.6 WSW 13 19 1017.0 - 10.6 - Partly cloudy 10 - - - -
31/04:00am 8.2 WSW 14 20 1017.0 - 10.6 - Partly cloudy 10 - - - -
31/03:30am 8.6 WSW 14 18 1016.9 - 10.6 - Partly cloudy 10 - - - -
31/03:00am 8.6 WSW 15 19 1016.8 - 10.6 - Mostly cloudy 10 - - - -
31/02:30am 8.3 WSW 9 12 1016.9 - 10.6 - Partly cloudy 10 - - - -
31/02:00am 8.4 W 15 21 1016.9 - 10.6 - Partly cloudy 10 - - - -
31/01:30am 8.4 SW 16 20 1016.8 - 10.6 - Partly cloudy 10 - - - -
31/01:00am 8.5 WSW 13 21 1016.5 - 10.6 - Partly cloudy 10 - - - -
31/12:30am 7.7 WSW 12 16 1016.4 - 10.6 - Partly cloudy 10 - - - -
31/12:00am 8.2 SW 17 25 1016.4 - 10.6 - Mostly cloudy 10 - - - -
 
Date/Time
EST
Temp

°C
Wind Pressure Rain
since 9am
mm
Weather Cloud Vis
km
Sea
Height
m
Swell
Dir
 
Speed
knots
Gust
knots
hPa Trend Height
m
Period
s
Dir
30/11:30pm 8.5 SW 16 21 1015.9 - 10.6 - Partly cloudy 10 - - - -
30/11:00pm 8.3 SW 14 19 1015.7 - 10.6 - Partly cloudy 10 - - - -
30/10:30pm 7.7 SW 21 27 1015.2 - 10.6 - Partly cloudy 10 - - - -
30/10:18pm 8.6 SW 17 29 1015.1 - 10.6 - Partly cloudy 10 - - - -
30/10:00pm 8.4 SW 20 29 1014.7 - 10.6 - Partly cloudy 10 - - - -
30/09:58pm 8.7 SW 19 29 1014.6 - 10.6 - Partly cloudy 10 - - - -
30/09:30pm 8.2 SW 16 25 1014.0 - 10.6 - Partly cloudy 10 - - - -
30/09:24pm 7.6 SW 16 21 1013.9 - 10.6 - Partly cloudy 10 - - - -
30/09:05pm 7.1 SW 20 34 1013.9 - 10.0 - Partly cloudy 5 - - - -
30/09:01pm 9.4 SW 18 28 1013.4 - 8.4 - Partly cloudy 10 - - - -
30/09:00pm 9.5 SW 19 28 1013.3 - 8.4 Showers Cloudy 10 - - - -
30/08:35pm 8.9 SW 19 29 1012.6 - 8.4 - Partly cloudy 10 - - - -

Other Formats:

Comma delimited format used in spreadsheet applications
http://www.bom.gov.au/fwo/IDV60701/IDV60701.94850.axf

JavaScript Object Notation format (JSON) in row-major order
http://www.bom.gov.au/fwo/IDV60701/IDV60701.94850.json